Time;durP1;ratioP1;P1;durP2;ratioP2;P2;SDS_P1;SDS_P2;PMS_P1;PMS_P2;Temp;Humidity;BMP_temperature;BMP_pressure;BME280_temperature;BME280_humidity;BME280_pressure;Samples;Min_cycle;Max_cycle;Signal;HPM_P1;HPM_P2
2021/04/08 00:01:40;;;;;;;7.75;2.30;;;5.70;91.30;;;;;;5012199;28;20037;-68
2021/04/08 00:04:06;;;;;;;10.15;2.15;;;5.70;91.30;;;;;;5027154;28;20116;-68
2021/04/08 00:06:31;;;;;;;6.57;2.17;;;5.70;91.20;;;;;;5027573;28;20036;-68
2021/04/08 00:08:57;;;;;;;9.85;2.17;;;5.70;91.10;;;;;;5021929;28;20383;-68
2021/04/08 00:11:23;;;;;;;10.00;2.28;;;5.60;91.10;;;;;;5011925;28;20133;-68
2021/04/08 00:13:48;;;;;;;5.63;2.65;;;5.50;91.20;;;;;;5025178;28;20029;-68
2021/04/08 00:16:13;;;;;;;5.60;2.10;;;5.50;91.20;;;;;;5027255;28;20030;-68
2021/04/08 00:18:39;;;;;;;11.45;3.03;;;5.60;91.20;;;;;;5022069;28;20017;-68
2021/04/08 00:21:05;;;;;;;8.82;3.00;;;5.60;91.20;;;;;;4997006;28;20042;-68
2021/04/08 00:23:30;;;;;;;6.60;2.40;;;5.60;91.00;;;;;;5021554;28;20021;-68
2021/04/08 00:25:56;;;;;;;9.10;2.40;;;5.60;91.10;;;;;;5015914;28;20371;-68
2021/04/08 00:28:22;;;;;;;11.20;2.33;;;5.60;91.10;;;;;;5021043;28;20109;-68
2021/04/08 00:30:48;;;;;;;9.88;3.60;;;5.70;90.90;;;;;;5017457;28;20109;-67
2021/04/08 00:33:14;;;;;;;7.35;2.28;;;5.70;90.90;;;;;;4994650;28;20460;-67
2021/04/08 00:35:40;;;;;;;5.90;2.17;;;5.70;90.80;;;;;;5011721;28;20094;-67
2021/04/08 00:38:06;;;;;;;10.60;2.80;;;5.70;91.00;;;;;;5018981;28;20030;-67
2021/04/08 00:40:32;;;;;;;7.70;2.40;;;5.70;90.80;;;;;;5029838;28;20048;-69
2021/04/08 00:42:58;;;;;;;4.82;2.20;;;5.80;90.70;;;;;;5028584;28;20504;-68
2021/04/08 00:45:23;;;;;;;8.00;2.55;;;5.70;90.70;;;;;;5019559;28;20084;-68
2021/04/08 00:47:49;;;;;;;9.38;2.63;;;5.70;90.60;;;;;;5014513;28;20163;-68
2021/04/08 00:50:16;;;;;;;9.60;3.38;;;5.70;90.40;;;;;;5011674;28;20022;-68
2021/04/08 00:52:44;;;;;;;10.45;2.55;;;5.70;90.60;;;;;;5014675;28;20029;-67
2021/04/08 00:55:12;;;;;;;8.52;2.80;;;5.70;90.60;;;;;;5019727;28;20080;-69
2021/04/08 00:57:38;;;;;;;9.52;2.30;;;5.70;90.40;;;;;;5014072;28;20030;-67
2021/04/08 01:00:06;;;;;;;8.27;2.60;;;5.70;90.40;;;;;;5023618;28;20249;-67
2021/04/08 01:02:35;;;;;;;6.22;2.30;;;5.60;90.50;;;;;;5013295;28;20513;-68
2021/04/08 01:05:01;;;;;;;9.55;2.13;;;5.60;90.40;;;;;;5024918;28;20053;-68
2021/04/08 01:07:27;;;;;;;11.50;2.72;;;5.60;90.40;;;;;;5009302;28;20057;-68
2021/04/08 01:09:52;;;;;;;5.40;2.15;;;5.70;90.40;;;;;;5008740;28;20061;-68
2021/04/08 01:12:18;;;;;;;8.15;3.00;;;5.70;90.40;;;;;;5011514;28;20524;-68
2021/04/08 01:14:44;;;;;;;9.50;2.53;;;5.70;90.30;;;;;;5023513;28;20046;-68
2021/04/08 01:17:17;;;;;;;6.32;2.30;;;5.70;90.20;;;;;;5010653;28;20470;-69
2021/04/08 01:20:07;;;;;;;6.60;2.58;;;5.70;90.20;;;;;;5024679;28;20395;-68
2021/04/08 01:23:03;;;;;;;4.45;2.45;;;5.70;90.10;;;;;;5013621;28;20036;-68
2021/04/08 01:25:59;;;;;;;7.78;2.33;;;5.80;90.20;;;;;;5011981;28;20112;-68
2021/04/08 01:28:42;;;;;;;13.48;3.10;;;5.80;90.10;;;;;;5018176;28;20029;-68
2021/04/08 01:31:11;;;;;;;11.50;3.08;;;5.80;90.10;;;;;;5024281;28;20041;-68
2021/04/08 01:33:45;;;;;;;7.32;3.28;;;5.80;90.00;;;;;;5024824;28;20099;-68
2021/04/08 01:36:19;;;;;;;7.68;3.00;;;5.80;90.00;;;;;;5011640;28;20060;-68
2021/04/08 01:38:56;;;;;;;6.68;2.38;;;5.80;90.30;;;;;;5011993;28;20034;-69
2021/04/08 01:41:24;;;;;;;9.02;2.42;;;5.80;90.10;;;;;;5030174;28;20109;-68
2021/04/08 01:43:51;;;;;;;7.20;2.70;;;5.80;90.10;;;;;;5013778;28;20038;-68
2021/04/08 01:46:19;;;;;;;9.45;2.50;;;5.80;90.10;;;;;;5030023;28;20038;-68
2021/04/08 01:48:49;;;;;;;9.98;2.65;;;5.80;90.20;;;;;;5021339;28;20068;-68
2021/04/08 01:51:15;;;;;;;6.82;2.80;;;5.80;90.20;;;;;;5019738;28;20030;-68
2021/04/08 01:53:48;;;;;;;6.50;3.00;;;5.80;90.30;;;;;;5014920;28;20034;-68
2021/04/08 01:56:20;;;;;;;7.63;2.33;;;5.80;90.40;;;;;;5019841;28;20065;-68
2021/04/08 01:58:47;;;;;;;6.82;2.58;;;5.80;90.50;;;;;;5014691;28;20022;-68
2021/04/08 02:01:15;;;;;;;8.50;2.42;;;5.80;90.50;;;;;;5013785;28;20068;-68
2021/04/08 02:03:41;;;;;;;6.55;2.58;;;5.80;90.60;;;;;;5013073;28;20080;-68
2021/04/08 02:06:08;;;;;;;10.60;2.72;;;5.90;90.50;;;;;;5014241;28;20057;-68
2021/04/08 02:08:41;;;;;;;7.38;2.78;;;5.90;90.50;;;;;;5020973;28;20506;-67
2021/04/08 02:11:10;;;;;;;10.50;2.47;;;5.90;90.50;;;;;;5014579;28;20025;-68
2021/04/08 02:13:37;;;;;;;7.75;2.40;;;5.80;90.40;;;;;;5020649;28;20601;-68
2021/04/08 02:16:02;;;;;;;7.68;2.28;;;5.80;90.50;;;;;;5014670;28;20045;-67
2021/04/08 02:18:28;;;;;;;8.45;3.50;;;5.80;90.40;;;;;;5014814;28;20030;-67
2021/04/08 02:20:57;;;;;;;9.70;2.90;;;5.90;90.40;;;;;;5034428;28;20439;-68
2021/04/08 02:23:25;;;;;;;6.97;2.60;;;5.80;90.30;;;;;;5025970;28;20064;-68
2021/04/08 02:25:52;;;;;;;7.22;2.35;;;5.80;90.20;;;;;;5014671;28;20133;-68
2021/04/08 02:28:19;;;;;;;7.75;2.63;;;5.80;90.30;;;;;;5028861;28;20084;-68
2021/04/08 02:30:46;;;;;;;9.13;3.10;;;5.90;90.30;;;;;;5034045;28;20025;-68
2021/04/08 02:33:25;;;;;;;12.07;4.22;;;5.90;90.40;;;;;;5031040;28;20041;-68
2021/04/08 02:35:52;;;;;;;7.40;2.70;;;5.80;90.30;;;;;;5021726;28;20188;-68
2021/04/08 02:38:19;;;;;;;6.78;2.70;;;5.80;90.40;;;;;;5028465;28;20034;-68
2021/04/08 02:40:44;;;;;;;9.90;3.13;;;5.80;90.20;;;;;;5023025;28;20036;-67
2021/04/08 02:43:11;;;;;;;9.90;2.97;;;5.80;90.10;;;;;;5027644;28;20030;-68
2021/04/08 02:45:38;;;;;;;6.88;2.70;;;5.90;90.10;;;;;;5018213;28;20441;-68
2021/04/08 02:48:11;;;;;;;8.85;3.63;;;5.80;90.10;;;;;;5014967;28;20157;-68
2021/04/08 02:50:40;;;;;;;9.25;2.88;;;5.80;90.10;;;;;;5001983;28;20032;-68
2021/04/08 02:53:36;;;;;;;12.00;2.72;;;5.80;90.10;;;;;;5030557;28;20056;-68
2021/04/08 02:56:13;;;;;;;5.78;2.50;;;5.70;90.20;;;;;;5022337;28;20034;-68
2021/04/08 02:58:41;;;;;;;9.45;2.83;;;5.70;90.20;;;;;;5012679;28;20034;-68
2021/04/08 03:01:11;;;;;;;7.32;2.28;;;5.70;90.20;;;;;;5012561;28;20054;-68
2021/04/08 03:03:47;;;;;;;8.60;3.05;;;5.70;90.10;;;;;;5012632;28;20079;-67
2021/04/08 03:06:14;;;;;;;8.27;2.70;;;5.70;90.00;;;;;;4994161;28;20072;-68
2021/04/08 03:08:41;;;;;;;4.88;2.25;;;5.70;90.00;;;;;;5030910;28;20021;-67
2021/04/08 03:11:09;;;;;;;8.70;2.67;;;5.70;90.10;;;;;;4995746;28;20053;-67
2021/04/08 03:13:38;;;;;;;10.50;2.92;;;5.70;89.90;;;;;;5027023;28;20083;-67
2021/04/08 03:16:07;;;;;;;7.18;2.58;;;5.70;90.00;;;;;;5013561;28;20045;-68
2021/04/08 03:18:33;;;;;;;7.88;2.83;;;5.70;90.20;;;;;;5015081;28;20414;-66
2021/04/08 03:21:00;;;;;;;10.45;3.10;;;5.60;90.00;;;;;;5011975;28;20018;-68
2021/04/08 03:23:25;;;;;;;10.20;2.97;;;5.60;90.20;;;;;;5011058;28;20021;-67
2021/04/08 03:25:53;;;;;;;9.48;2.75;;;5.70;90.20;;;;;;5013461;28;20028;-67
2021/04/08 03:28:19;;;;;;;7.15;2.42;;;5.60;90.20;;;;;;5022967;28;20053;-68
2021/04/08 03:30:46;;;;;;;8.95;2.95;;;5.70;90.20;;;;;;5013563;28;20360;-67
2021/04/08 03:33:14;;;;;;;12.48;4.05;;;5.70;90.20;;;;;;5022512;28;20022;-67
2021/04/08 03:35:45;;;;;;;19.30;3.95;;;5.70;90.20;;;;;;5012908;28;20030;-67
2021/04/08 03:38:11;;;;;;;6.95;3.00;;;5.70;90.10;;;;;;5011317;28;20040;-67
2021/04/08 03:40:37;;;;;;;4.68;2.45;;;5.80;90.10;;;;;;5012995;28;20033;-67
2021/04/08 03:43:03;;;;;;;12.95;3.10;;;5.70;90.10;;;;;;5011156;28;20026;-67
2021/04/08 03:45:28;;;;;;;6.88;2.50;;;5.70;90.00;;;;;;5013003;28;20101;-67
2021/04/08 03:48:01;;;;;;;5.93;2.38;;;5.70;90.00;;;;;;5015369;28;20113;-67
2021/04/08 03:50:28;;;;;;;7.97;2.88;;;5.70;90.00;;;;;;5011784;28;20021;-67
2021/04/08 03:52:55;;;;;;;8.52;3.22;;;5.70;90.20;;;;;;5023607;28;20052;-67
2021/04/08 03:55:22;;;;;;;7.50;2.67;;;5.70;90.50;;;;;;5032713;28;20030;-67
2021/04/08 03:57:49;;;;;;;10.38;2.97;;;5.60;90.80;;;;;;5015384;28;20025;-68
2021/04/08 04:00:15;;;;;;;6.43;2.53;;;5.60;90.90;;;;;;5014404;28;20042;-68
2021/04/08 04:02:42;;;;;;;8.40;3.00;;;5.60;91.10;;;;;;5022786;28;20432;-68
2021/04/08 04:05:11;;;;;;;9.80;3.17;;;5.50;91.40;;;;;;5024298;28;20137;-68
2021/04/08 04:07:38;;;;;;;12.05;3.63;;;5.40;91.40;;;;;;5000540;28;20026;-68
2021/04/08 04:10:05;;;;;;;12.18;3.33;;;5.40;91.50;;;;;;5000061;28;20089;-68
2021/04/08 04:12:34;;;;;;;10.05;3.45;;;5.40;91.60;;;;;;5020332;28;20026;-68
2021/04/08 04:15:02;;;;;;;10.60;3.55;;;5.30;91.90;;;;;;5026179;28;20491;-69
2021/04/08 04:17:29;;;;;;;8.75;4.53;;;5.30;91.80;;;;;;5021703;28;20033;-68
2021/04/08 04:19:56;;;;;;;9.20;3.80;;;5.30;92.00;;;;;;5027491;28;20037;-69
2021/04/08 04:22:22;;;;;;;11.23;3.28;;;5.30;92.10;;;;;;5028078;28;20735;-69
2021/04/08 04:24:48;;;;;;;12.73;3.63;;;5.20;92.00;;;;;;5017478;28;20030;-69
2021/04/08 04:27:14;;;;;;;10.48;3.72;;;5.30;92.20;;;;;;5011052;28;20571;-69
2021/04/08 04:29:39;;;;;;;11.13;3.78;;;5.20;92.30;;;;;;5012309;28;20032;-69
2021/04/08 04:32:08;;;;;;;12.65;4.53;;;5.20;92.30;;;;;;4994216;28;20057;-68
2021/04/08 04:34:33;;;;;;;10.07;3.45;;;5.20;92.40;;;;;;5011632;28;20052;-69
2021/04/08 04:36:59;;;;;;;12.20;4.15;;;5.20;92.30;;;;;;5008933;28;20042;-69
2021/04/08 04:39:24;;;;;;;13.90;4.25;;;5.20;92.40;;;;;;5012420;28;20429;-69
2021/04/08 04:41:50;;;;;;;15.68;3.50;;;5.10;92.30;;;;;;5011354;28;20100;-68
2021/04/08 04:44:15;;;;;;;11.35;3.78;;;5.20;92.30;;;;;;5012504;28;20390;-67
2021/04/08 04:46:41;;;;;;;9.98;3.15;;;5.20;92.50;;;;;;5002164;28;20026;-69
2021/04/08 04:49:06;;;;;;;13.02;4.13;;;5.20;92.30;;;;;;5031261;28;20052;-68
2021/04/08 04:51:32;;;;;;;9.98;4.05;;;5.30;92.40;;;;;;5020994;28;20026;-68
2021/04/08 04:53:58;;;;;;;17.85;4.38;;;5.30;92.10;;;;;;5031428;28;20030;-68
2021/04/08 04:56:23;;;;;;;9.80;3.95;;;5.30;92.10;;;;;;5021770;28;20087;-67
2021/04/08 04:58:48;;;;;;;8.98;2.97;;;5.30;92.20;;;;;;5027757;28;20014;-67
2021/04/08 05:01:14;;;;;;;10.55;4.50;;;5.30;92.10;;;;;;5010627;28;20133;-67
2021/04/08 05:03:40;;;;;;;12.35;4.32;;;5.30;92.10;;;;;;5007988;28;20083;-67
2021/04/08 05:06:05;;;;;;;10.45;4.00;;;5.30;92.00;;;;;;5017153;28;20029;-67
2021/04/08 05:08:31;;;;;;;17.30;4.22;;;5.30;91.90;;;;;;5027253;28;20387;-68
2021/04/08 05:10:56;;;;;;;12.85;4.43;;;5.30;91.80;;;;;;5015470;28;20105;-68
2021/04/08 05:13:22;;;;;;;13.73;3.40;;;5.30;91.70;;;;;;5012068;28;20040;-69
2021/04/08 05:15:47;;;;;;;13.95;3.80;;;5.30;91.70;;;;;;5025768;28;20490;-68
2021/04/08 05:18:13;;;;;;;11.80;3.75;;;5.30;91.50;;;;;;4998881;28;20125;-67
2021/04/08 05:20:38;;;;;;;12.00;4.15;;;5.20;91.50;;;;;;5029348;28;20390;-68
2021/04/08 05:23:04;;;;;;;9.25;3.78;;;5.30;91.40;;;;;;5028025;28;20037;-68
2021/04/08 05:25:29;;;;;;;15.63;3.63;;;5.30;91.50;;;;;;5012840;28;20025;-67
2021/04/08 05:27:55;;;;;;;12.45;4.47;;;5.30;91.40;;;;;;5014669;28;20045;-68
2021/04/08 05:30:21;;;;;;;12.02;3.80;;;5.30;91.30;;;;;;5018273;28;20485;-68
2021/04/08 05:32:46;;;;;;;13.00;3.78;;;5.30;91.20;;;;;;5021770;28;20057;-67
2021/04/08 05:35:12;;;;;;;11.30;3.50;;;5.30;91.30;;;;;;5011913;28;20034;-67
2021/04/08 05:37:38;;;;;;;10.70;3.40;;;5.40;91.20;;;;;;5019523;28;20088;-68
2021/04/08 05:40:04;;;;;;;13.82;4.10;;;5.40;90.90;;;;;;5016080;28;20268;-68
2021/04/08 05:42:29;;;;;;;12.80;3.78;;;5.40;90.90;;;;;;5004259;28;20116;-67
2021/04/08 05:44:55;;;;;;;10.18;3.30;;;5.30;90.80;;;;;;5035009;28;20029;-64
2021/04/08 05:47:20;;;;;;;13.93;3.45;;;5.30;90.80;;;;;;5029391;28;20033;-63
2021/04/08 05:49:46;;;;;;;12.35;3.42;;;5.40;90.60;;;;;;5019789;28;20486;-69
2021/04/08 05:52:11;;;;;;;16.00;3.97;;;5.30;90.60;;;;;;5022280;28;20068;-68
2021/04/08 05:54:37;;;;;;;14.43;4.22;;;5.30;90.60;;;;;;5034623;28;20398;-69
2021/04/08 05:57:02;;;;;;;12.88;4.28;;;5.30;90.70;;;;;;5018545;28;20124;-69
2021/04/08 05:59:28;;;;;;;11.20;4.57;;;5.30;90.70;;;;;;5026198;28;20136;-69
2021/04/08 06:01:53;;;;;;;16.27;3.88;;;5.40;90.70;;;;;;5016600;28;20116;-69
2021/04/08 06:04:19;;;;;;;12.63;4.65;;;5.40;90.50;;;;;;5034545;28;20079;-69
2021/04/08 06:06:44;;;;;;;8.57;3.92;;;5.40;90.60;;;;;;5019496;28;20128;-69
2021/04/08 06:09:10;;;;;;;10.35;3.40;;;5.40;90.70;;;;;;5026299;28;20017;-68
2021/04/08 06:11:35;;;;;;;14.32;4.82;;;5.50;90.80;;;;;;5010217;28;20554;-68
2021/04/08 06:14:01;;;;;;;9.55;3.22;;;5.50;90.60;;;;;;4998514;28;20100;-68
2021/04/08 06:16:26;;;;;;;10.60;5.03;;;5.60;90.60;;;;;;5013466;28;20112;-69
2021/04/08 06:18:51;;;;;;;9.70;3.67;;;5.60;90.50;;;;;;5026022;28;20033;-68
2021/04/08 06:21:17;;;;;;;9.85;3.83;;;5.60;90.30;;;;;;5013727;28;20026;-68
2021/04/08 06:23:43;;;;;;;15.20;4.00;;;5.60;90.20;;;;;;5021652;28;20084;-68
2021/04/08 06:26:08;;;;;;;8.52;3.50;;;5.70;90.10;;;;;;5014994;28;20042;-69
2021/04/08 06:28:34;;;;;;;11.95;4.45;;;5.70;90.20;;;;;;5030960;28;20034;-68
2021/04/08 06:30:59;;;;;;;10.18;3.85;;;5.70;89.90;;;;;;5034053;28;20067;-68
2021/04/08 06:33:25;;;;;;;9.70;3.50;;;5.70;89.90;;;;;;5014517;28;20525;-68
2021/04/08 06:35:50;;;;;;;11.85;3.90;;;5.70;89.50;;;;;;5014316;28;20033;-68
2021/04/08 06:38:16;;;;;;;10.63;3.65;;;5.70;89.90;;;;;;5026523;28;20030;-68
2021/04/08 06:40:41;;;;;;;9.60;4.13;;;5.80;89.30;;;;;;4993313;28;20387;-69
2021/04/08 06:43:10;;;;;;;11.18;3.30;;;5.70;89.30;;;;;;5008086;28;20052;-69
2021/04/08 06:45:38;;;;;;;9.95;4.05;;;5.80;89.20;;;;;;5013438;28;20034;-69
2021/04/08 06:48:17;;;;;;;14.63;4.88;;;5.80;89.10;;;;;;5025948;28;20037;-68
2021/04/08 06:50:44;;;;;;;10.40;3.38;;;5.80;89.00;;;;;;5028178;28;20516;-68
2021/04/08 06:53:10;;;;;;;14.57;4.32;;;5.90;88.80;;;;;;5027421;28;20122;-68
2021/04/08 06:55:36;;;;;;;6.30;3.80;;;5.80;88.30;;;;;;5029907;28;20092;-69
2021/04/08 06:58:05;;;;;;;12.05;4.45;;;5.80;88.90;;;;;;5020375;28;20628;-69
2021/04/08 07:00:31;;;;;;;13.55;4.57;;;5.80;88.70;;;;;;5012847;28;20491;-69
2021/04/08 07:02:58;;;;;;;9.85;4.15;;;5.90;88.90;;;;;;5025287;28;20108;-67
2021/04/08 07:05:24;;;;;;;14.80;3.97;;;5.90;88.70;;;;;;5012883;28;20390;-68
2021/04/08 07:07:50;;;;;;;9.93;3.60;;;6.00;88.80;;;;;;5014877;28;20456;-68
2021/04/08 07:10:16;;;;;;;14.18;4.97;;;6.10;88.60;;;;;;5013531;28;20037;-66
2021/04/08 07:12:42;;;;;;;13.10;4.30;;;6.10;88.40;;;;;;5011024;28;20037;-69
2021/04/08 07:15:08;;;;;;;11.00;3.85;;;6.10;88.40;;;;;;4992837;28;20169;-69
2021/04/08 07:17:34;;;;;;;9.65;4.38;;;6.20;88.40;;;;;;5008170;28;20084;-70
2021/04/08 07:19:59;;;;;;;10.95;4.00;;;6.30;88.00;;;;;;5011694;28;20037;-68
2021/04/08 07:22:26;;;;;;;12.07;3.67;;;6.30;87.60;;;;;;5011579;28;20076;-69
2021/04/08 07:24:53;;;;;;;11.35;3.80;;;6.40;87.40;;;;;;4980230;28;20498;-69
2021/04/08 07:27:22;;;;;;;10.25;3.40;;;6.40;87.40;;;;;;5009522;28;20033;-68
2021/04/08 07:29:58;;;;;;;10.35;3.60;;;6.50;87.00;;;;;;5009926;28;20018;-69
2021/04/08 07:32:28;;;;;;;14.20;4.13;;;6.50;86.50;;;;;;5011659;28;20030;-69
2021/04/08 07:34:55;;;;;;;10.80;3.30;;;6.50;85.70;;;;;;5010533;28;20030;-69
2021/04/08 07:37:23;;;;;;;10.48;3.13;;;6.40;85.10;;;;;;5015340;28;20034;-69
2021/04/08 07:39:49;;;;;;;11.63;3.50;;;6.50;85.50;;;;;;5012088;28;20061;-70
2021/04/08 07:42:16;;;;;;;12.68;3.47;;;6.50;86.00;;;;;;5014208;28;20545;-70
2021/04/08 07:44:52;;;;;;;7.90;3.42;;;6.60;85.90;;;;;;5011814;28;20037;-69
2021/04/08 07:47:19;;;;;;;11.57;3.55;;;6.60;86.00;;;;;;5018132;28;20033;-69
2021/04/08 07:49:46;;;;;;;11.95;3.17;;;6.70;86.20;;;;;;4993306;28;20026;-69
2021/04/08 07:52:21;;;;;;;9.68;3.47;;;6.80;85.30;;;;;;5013274;28;21884;-69
2021/04/08 07:55:05;;;;;;;;;;;6.90;85.00;;;;;;4981610;28;20128;-69
2021/04/08 07:57:32;;;;;;;10.13;3.55;;;7.00;84.90;;;;;;5012994;28;19909;-70
2021/04/08 08:00:16;;;;;;;8.30;3.22;;;7.00;84.10;;;;;;5015588;28;20049;-69
2021/04/08 08:02:42;;;;;;;10.43;3.38;;;7.10;82.70;;;;;;4997701;28;20038;-69
2021/04/08 08:05:26;;;;;;;8.85;3.00;;;7.20;82.40;;;;;;4983325;28;20058;-69
2021/04/08 08:07:54;;;;;;;9.15;3.17;;;7.40;82.30;;;;;;5018446;28;20040;-69
2021/04/08 08:10:23;;;;;;;11.10;3.25;;;7.50;81.80;;;;;;5018622;28;20030;-69
2021/04/08 08:12:49;;;;;;;18.35;3.85;;;7.50;80.20;;;;;;5021784;28;20040;-70
2021/04/08 08:15:27;;;;;;;10.48;3.72;;;7.50;79.90;;;;;;5015176;28;20034;-68
2021/04/08 08:17:54;;;;;;;11.60;3.00;;;7.60;80.60;;;;;;5023188;28;20141;-69
2021/04/08 08:20:21;;;;;;;11.90;3.17;;;7.60;79.10;;;;;;5012782;28;20045;-70
2021/04/08 08:22:47;;;;;;;12.32;3.47;;;7.70;79.70;;;;;;5017740;28;20036;-69
2021/04/08 08:25:14;;;;;;;7.40;3.13;;;7.90;79.30;;;;;;5005400;28;20074;-68
2021/04/08 08:27:42;;;;;;;11.18;2.90;;;7.90;78.70;;;;;;5011445;28;20539;-71
2021/04/08 08:30:14;;;;;;;10.35;3.05;;;8.00;77.50;;;;;;5016214;28;20125;-67
2021/04/08 08:33:02;;;;;;;12.48;3.20;;;8.00;77.10;;;;;;5010842;28;20082;-67
2021/04/08 08:35:28;;;;;;;10.20;2.72;;;8.10;76.30;;;;;;5010628;28;20041;-67
2021/04/08 08:38:07;;;;;;;15.77;2.92;;;8.10;74.00;;;;;;5014039;28;20045;-67
2021/04/08 08:40:33;;;;;;;7.00;2.30;;;8.00;74.30;;;;;;5011460;28;20034;-67
2021/04/08 08:42:59;;;;;;;8.80;3.00;;;8.00;73.30;;;;;;5011937;28;20034;-67
2021/04/08 08:45:25;;;;;;;11.18;3.35;;;7.90;74.00;;;;;;5011514;28;20500;-68
2021/04/08 08:47:52;;;;;;;9.57;2.88;;;7.90;74.40;;;;;;5020661;28;20486;-67
2021/04/08 08:50:19;;;;;;;9.05;2.70;;;8.00;74.60;;;;;;5002071;28;20037;-68
2021/04/08 08:52:50;;;;;;;12.27;3.00;;;8.10;74.10;;;;;;5009740;28;20036;-68
2021/04/08 08:55:17;;;;;;;8.20;2.65;;;8.20;74.70;;;;;;5011913;28;20034;-68
2021/04/08 08:57:51;;;;;;;10.10;2.28;;;8.30;73.00;;;;;;5018400;28;20029;-67
2021/04/08 09:00:18;;;;;;;7.80;2.70;;;8.30;72.20;;;;;;5011894;28;20042;-67
2021/04/08 09:02:45;;;;;;;8.35;2.65;;;8.40;72.00;;;;;;5020825;28;20052;-67
2021/04/08 09:05:14;;;;;;;7.18;2.47;;;8.50;71.20;;;;;;5019454;28;20108;-67
2021/04/08 09:07:41;;;;;;;8.93;2.20;;;8.60;70.80;;;;;;5022492;28;20486;-68
2021/04/08 09:10:08;;;;;;;5.40;2.50;;;8.60;69.30;;;;;;5000995;28;20056;-68
2021/04/08 09:12:34;;;;;;;7.25;2.50;;;8.50;68.00;;;;;;5016564;28;20598;-68
2021/04/08 09:15:01;;;;;;;9.13;3.05;;;8.50;68.40;;;;;;5014648;28;20136;-68
2021/04/08 09:17:46;;;;;;;6.13;2.60;;;8.60;66.10;;;;;;5014379;28;20109;-68
2021/04/08 09:20:18;;;;;;;5.22;2.08;;;8.60;66.20;;;;;;5013880;28;20044;-68
2021/04/08 09:22:56;;;;;;;8.57;2.13;;;8.50;65.50;;;;;;5023635;28;20041;-67
2021/04/08 09:25:39;;;;;;;9.80;2.42;;;8.60;65.20;;;;;;5008845;28;20034;-68
2021/04/08 09:28:11;;;;;;;8.02;2.00;;;8.50;64.10;;;;;;4996486;28;20469;-67
2021/04/08 09:33:10;;;;;;;7.03;1.90;;;8.60;64.50;;;;;;5013055;28;20497;-67
2021/04/08 09:35:37;;;;;;;8.07;2.25;;;8.60;63.90;;;;;;5014119;28;20038;-67
2021/04/08 09:38:02;;;;;;;3.20;1.85;;;8.70;63.20;;;;;;5005008;28;20038;-68
2021/04/08 09:40:45;;;;;;;7.68;1.98;;;8.70;63.10;;;;;;4998888;28;20037;-67
2021/04/08 09:43:16;;;;;;;4.95;2.15;;;8.70;63.50;;;;;;5015498;28;20056;-68
2021/04/08 09:45:50;;;;;;;5.55;2.15;;;8.80;63.80;;;;;;5015060;28;20037;-69
2021/04/08 09:48:23;;;;;;;6.55;2.67;;;8.90;63.70;;;;;;5010495;28;20429;-67
2021/04/08 09:50:56;;;;;;;5.95;2.05;;;9.00;62.70;;;;;;5014414;28;20045;-72
2021/04/08 09:53:25;;;;;;;6.13;1.65;;;9.10;63.40;;;;;;5023751;28;20025;-68
2021/04/08 09:55:55;;;;;;;6.38;1.92;;;9.10;60.80;;;;;;5013933;28;20037;-68
2021/04/08 09:58:29;;;;;;;5.05;2.00;;;9.10;60.90;;;;;;5026558;28;20048;-68
2021/04/08 10:00:56;;;;;;;4.72;1.77;;;9.10;60.30;;;;;;5014965;28;20045;-68
2021/04/08 10:03:36;;;;;;;7.10;2.08;;;9.20;61.20;;;;;;5012539;28;20030;-69
2021/04/08 10:06:24;;;;;;;6.60;2.17;;;9.30;61.50;;;;;;5014580;28;20034;-68
2021/04/08 10:08:51;;;;;;;4.90;2.10;;;9.40;61.00;;;;;;4995391;28;20030;-69
2021/04/08 10:11:29;;;;;;;9.07;2.30;;;9.50;61.20;;;;;;5009749;28;20034;-69
2021/04/08 10:13:55;;;;;;;6.05;2.10;;;9.50;60.40;;;;;;5005034;28;20046;-70
2021/04/08 10:16:20;;;;;;;8.02;2.08;;;9.40;60.10;;;;;;5010743;28;20042;-71
2021/04/08 10:18:46;;;;;;;6.90;1.88;;;9.50;59.40;;;;;;5024408;28;20053;-68
2021/04/08 10:21:15;;;;;;;9.00;2.00;;;9.50;59.30;;;;;;4994007;28;20076;-69
2021/04/08 10:23:47;;;;;;;9.23;2.60;;;9.60;58.70;;;;;;5000250;28;20034;-70
2021/04/08 10:26:33;;;;;;;5.40;2.30;;;9.50;58.90;;;;;;5011522;28;20037;-70
2021/04/08 10:29:01;;;;;;;4.00;1.90;;;9.50;60.00;;;;;;4994756;28;20077;-70
2021/04/08 10:31:41;;;;;;;5.32;1.77;;;9.50;59.00;;;;;;5001906;28;20122;-70
2021/04/08 10:34:13;;;;;;;6.57;2.17;;;9.50;58.00;;;;;;5017088;28;20530;-69
2021/04/08 10:36:46;;;;;;;7.63;1.95;;;9.50;57.50;;;;;;4998630;28;20153;-70
2021/04/08 10:39:19;;;;;;;9.82;2.05;;;9.60;57.50;;;;;;5014122;28;20022;-69
2021/04/08 10:41:59;;;;;;;6.10;2.30;;;9.70;57.30;;;;;;5015026;28;20434;-71
2021/04/08 10:44:30;;;;;;;7.13;1.92;;;9.80;57.10;;;;;;5011488;28;20547;-70
2021/04/08 10:47:06;;;;;;;8.70;2.33;;;9.80;57.50;;;;;;5015417;28;20098;-70
2021/04/08 10:49:34;;;;;;;6.78;1.70;;;9.90;57.20;;;;;;4997168;28;20034;-71
2021/04/08 10:52:05;;;;;;;6.55;1.67;;;9.90;55.30;;;;;;5009658;28;20029;-70
2021/04/08 10:54:32;;;;;;;6.65;1.50;;;9.90;55.00;;;;;;5022409;28;20100;-70
2021/04/08 10:56:58;;;;;;;4.50;1.63;;;10.00;55.50;;;;;;4994700;28;20030;-70
2021/04/08 10:59:26;;;;;;;5.32;1.90;;;10.00;54.20;;;;;;4999921;28;20491;-70
2021/04/08 11:01:53;;;;;;;4.15;1.95;;;10.10;54.30;;;;;;5016709;28;20033;-70
2021/04/08 11:04:20;;;;;;;3.58;1.50;;;10.30;54.30;;;;;;5022820;28;20567;-70
2021/04/08 11:06:46;;;;;;;6.43;1.85;;;10.40;53.70;;;;;;5027539;28;20056;-70
2021/04/08 11:09:20;;;;;;;5.43;1.52;;;10.50;53.40;;;;;;5024300;28;20026;-70
2021/04/08 11:11:45;;;;;;;5.10;1.80;;;10.60;53.90;;;;;;5015281;28;20384;-69
2021/04/08 11:14:26;;;;;;;6.50;1.70;;;10.80;53.40;;;;;;5017675;28;20502;-69
2021/04/08 11:16:54;;;;;;;3.30;1.52;;;10.90;52.10;;;;;;5015925;28;20120;-69
2021/04/08 11:19:21;;;;;;;4.25;1.33;;;10.90;50.30;;;;;;4992748;28;20168;-70
2021/04/08 11:21:47;;;;;;;4.63;1.67;;;11.00;50.20;;;;;;5014001;28;20034;-69
2021/04/08 11:24:14;;;;;;;4.45;1.90;;;10.90;50.10;;;;;;5016370;28;20030;-70
2021/04/08 11:26:53;;;;;;;3.85;1.63;;;10.90;50.40;;;;;;5011694;28;20223;-70
2021/04/08 11:29:23;;;;;;;4.25;2.00;;;10.90;50.70;;;;;;5011450;28;20030;-70
2021/04/08 11:32:15;;;;;;;5.32;1.80;;;10.90;50.50;;;;;;5009961;28;20030;-70
2021/04/08 11:34:46;;;;;;;5.80;1.98;;;10.90;51.30;;;;;;5006371;28;20072;-69
2021/04/08 11:37:14;;;;;;;9.55;2.13;;;10.90;51.40;;;;;;5011295;28;20073;-70
2021/04/08 11:39:40;;;;;;;5.63;2.15;;;10.90;52.20;;;;;;5012675;28;20026;-70
2021/04/08 11:42:22;;;;;;;5.95;2.33;;;11.00;52.40;;;;;;5011773;28;20029;-69
2021/04/08 11:44:50;;;;;;;7.82;2.10;;;11.10;52.80;;;;;;5023326;28;20033;-69
2021/04/08 11:47:21;;;;;;;5.45;2.05;;;11.10;53.60;;;;;;4996507;28;20030;-70
2021/04/08 11:49:53;;;;;;;7.55;1.70;;;11.20;53.10;;;;;;4999217;28;20124;-70
2021/04/08 11:52:26;;;;;;;6.25;2.40;;;11.20;52.90;;;;;;5012438;28;20030;-69
2021/04/08 11:55:11;;;;;;;4.95;1.80;;;11.30;52.80;;;;;;5012442;28;20041;-68
2021/04/08 11:57:37;;;;;;;4.68;2.00;;;11.30;51.90;;;;;;5013160;28;20394;-69
2021/04/08 12:00:07;;;;;;;3.45;1.70;;;11.20;50.30;;;;;;5011485;28;20069;-69
2021/04/08 12:02:36;;;;;;;4.80;1.80;;;11.00;50.10;;;;;;5011569;28;20045;-70
2021/04/08 12:05:06;;;;;;;6.72;2.10;;;11.00;50.30;;;;;;5029104;28;20379;-69
2021/04/08 12:07:50;;;;;;;4.00;1.85;;;10.90;50.40;;;;;;5014728;28;20032;-70
2021/04/08 12:10:30;;;;;;;4.05;1.90;;;10.90;49.80;;;;;;5022678;28;20029;-70
2021/04/08 12:12:59;;;;;;;8.27;1.95;;;10.90;49.30;;;;;;5008585;28;20493;-69
2021/04/08 12:15:51;;;;;;;9.05;2.20;;;10.80;49.90;;;;;;5015758;28;20037;-69
2021/04/08 12:18:18;;;;;;;5.18;1.90;;;10.90;50.20;;;;;;5005761;28;20436;-69
2021/04/08 12:20:48;;;;;;;5.93;2.08;;;10.90;50.30;;;;;;5008882;28;20087;-69
2021/04/08 12:23:16;;;;;;;5.95;2.00;;;10.90;50.00;;;;;;5011577;28;20034;-69
2021/04/08 12:25:44;;;;;;;5.03;2.03;;;10.90;49.80;;;;;;5027963;28;20029;-70
2021/04/08 12:28:10;;;;;;;4.53;1.70;;;10.90;49.30;;;;;;5009450;28;20060;-70
2021/04/08 12:30:45;;;;;;;9.18;1.77;;;11.00;48.80;;;;;;5031921;28;20112;-69
2021/04/08 12:33:20;;;;;;;4.03;1.42;;;11.00;47.80;;;;;;5011302;28;20625;-67
2021/04/08 12:35:46;;;;;;;6.95;2.00;;;11.00;48.00;;;;;;5024952;28;20065;-68
2021/04/08 12:38:13;;;;;;;3.15;1.60;;;11.10;48.20;;;;;;5011111;28;20537;-69
2021/04/08 12:40:39;;;;;;;3.78;1.60;;;11.10;48.50;;;;;;5012079;28;20100;-68
2021/04/08 12:43:05;;;;;;;5.97;1.65;;;11.10;49.00;;;;;;5009235;28;20462;-68
2021/04/08 12:45:30;;;;;;;4.70;1.52;;;11.10;48.60;;;;;;5011683;28;20105;-69
2021/04/08 12:47:56;;;;;;;7.97;1.90;;;11.00;48.40;;;;;;5010544;28;20113;-68
2021/04/08 12:50:22;;;;;;;9.35;1.90;;;10.90;49.50;;;;;;5010696;28;20041;-67
2021/04/08 12:52:48;;;;;;;3.75;1.52;;;10.90;49.90;;;;;;5011437;28;20025;-69
2021/04/08 12:55:14;;;;;;;6.53;1.60;;;10.90;50.20;;;;;;5015866;28;20084;-68
2021/04/08 12:57:40;;;;;;;3.95;1.77;;;10.90;50.40;;;;;;5009914;28;20114;-68
2021/04/08 13:00:06;;;;;;;8.43;1.80;;;10.80;50.80;;;;;;5008926;28;20561;-68
2021/04/08 13:02:32;;;;;;;5.38;1.77;;;10.90;50.70;;;;;;5011341;28;20025;-68
2021/04/08 13:04:57;;;;;;;4.03;1.58;;;10.90;51.20;;;;;;5013459;28;20125;-68